Ava, Missouri
Current Conditions -  °F | °C
As of 11:50 AM on Saturday 25 Oct 2014 (Local Time) from KBBG Reporting Station
Clear Clear  
Wind Chill: 79°   Ceiling: Unl
Heat Index: 80°   Visibility: 10mi
Dew Point: 63°   Wind: 6mph
Humidity: 57%   Direction: 300°WNW
Pressure: 30.11"   Gusts: NA
Location:  36.95°N, 92.66°W
Report Text: KBBG 251650Z 30005KT 10SM SKC 26/17 A3011
Loading
Personal Weather Stations






























Interactive Weather Map New forecast layout! Learn more

10-Day Weather Forecast

Advertisements
Track Severe Weather on mobile